Aerial Acres, California
Current Conditions -  °F | °C
As of 9:58 AM on Saturday 25 Oct 2014 (Local Time) from KEDW Reporting Station
Broken Clouds Broken Clouds  
Wind Chill: 69°   Ceiling: 25000
Heat Index: 69°   Visibility: 70mi
Dew Point: 30°   Wind: 5mph
Humidity: 23%   Direction: 180°S
Pressure: 30.08"   Gusts: NA
Location:  34.931°N, 117.867°W
Report Text: KEDW 251658Z 18004KT 70SM FEW080 FEW200 BKN250 21/M01 A3008 RMK AO2A SLP170 T02081009
Loading
Personal Weather Stations






























Interactive Weather Map
Tropical Storm Tracking
New forecast layout! Learn more

10-Day Weather Forecast

Advertisements
Track Severe Weather on mobile